KFSI/FSI METAR and TAF weather

Enter ICAO airport designator
Station Type Date Time Source
KFSI METAR 2020/01/20 21:56 UTC NOAA

KFSI 202156Z AUTO 00000KT 10SM CLR 14/M03 A3042 RMK AO2 SLP305 T01351029 PNO $


Station Type Date Time Source
KFSI Decoded METAR 2020/01/20 21:56 UTC NOAA

Fort Sill, OK, United States (KFSI) 34-36N 098-24W 360M
Jan 20, 2020 - 04:56 PM EST / 2020.01.20 2156 UTC
Wind: Calm:0
Visibility: 10 mile(s):0
Sky conditions: clear
Temperature: 56.3 F (13.5 C)
Dew Point: 26.8 F (-2.9 C)
Relative Humidity: 31%
Pressure (altimeter): 30.42 in. Hg (1030 hPa)
ob: KFSI 202156Z AUTO 00000KT 10SM CLR 14/M03 A3042 RMK AO2 SLP305 T01351029 PNO
cycle: 22

Station Type Date Time Source
KFSI TAF 2020/01/17 23:27 UTC NOAA

TAF
AMD KFSI 172319Z 1723/1904 19009KT 9999 OVC005 WS020/30040KT QNH2995INS
BECMG 1805/1806 23012KT 9999 NSW FEW005 WS020/01040KT QNH2999INS
BECMG 1815/1816 35015G30KT 9999 SKC QNH3036INS
BECMG 1822/1823 02009KT 9999 SKC QNH3038INS TX09/1820Z TN05/1814Z LAST NO
AMDS AFT 1804 NEXT 2114

Example: see airport list